« Back
NWS Peachtree City, Ga » Text Product » ATL Terminal Aerodrome Forecast


Printer-friendly Version
Current Version              Previous Versions:   1  2  3  4  5  6  7  8  9  

Terminal Aerodrome Forecast

638
FTUS42 KFFC 192300
TAFATL
TAF
KATL 192320Z 2000/2106 09012KT P6SM SCT045
     FM200900 08008KT P6SM BKN015
     FM201500 09010G15KT P6SM SCT035
     FM201900 10011G15KT P6SM SCT060
     FM210000 08008KT P6SM SCT250=



USA.gov is the U.S. government's official web portal to all federal, state and local government web resources and services.